Time;durP1;ratioP1;P1;durP2;ratioP2;P2;SDS_P1;SDS_P2;PMS_P1;PMS_P2;Temp;Humidity;BMP_temperature;BMP_pressure;BME280_temperature;BME280_humidity;BME280_pressure;Samples;Min_cycle;Max_cycle;Signal;HPM_P1;HPM_P2
2024/03/28 00:01:13;;;;;;;24.35;16.88;;;;;;;;;;2071569;28;20034;-65
2024/03/28 00:02:32;;;;;;;26.35;17.33;;;;;;;;;;2072812;28;20124;-65
2024/03/28 00:03:51;;;;;;;27.45;17.50;;;;;;;;;;2071824;28;20033;-65
2024/03/28 00:05:10;;;;;;;25.30;17.58;;;;;;;;;;2073834;28;20425;-65
2024/03/28 00:06:29;;;;;;;31.17;18.35;;;;;;;;;;2076397;28;20029;-65
2024/03/28 00:07:48;;;;;;;29.00;17.90;;;;;;;;;;2073792;28;20025;-65
2024/03/28 00:09:07;;;;;;;27.52;17.25;;;;;;;;;;2071928;28;20494;-65
2024/03/28 00:10:26;;;;;;;26.42;16.98;;;;;;;;;;2073217;28;20033;-65
2024/03/28 00:11:45;;;;;;;23.67;16.77;;;;;;;;;;2073786;28;20037;-65
2024/03/28 00:13:04;;;;;;;25.58;17.23;;;;;;;;;;2074178;28;20030;-65
2024/03/28 00:14:23;;;;;;;24.02;17.00;;;;;;;;;;2073513;28;20417;-65
2024/03/28 00:15:43;;;;;;;27.15;18.35;;;;;;;;;;2078398;28;20116;-65
2024/03/28 00:17:02;;;;;;;28.70;17.67;;;;;;;;;;2072856;28;20033;-65
2024/03/28 00:18:21;;;;;;;23.38;16.45;;;;;;;;;;2073837;28;20033;-65
2024/03/28 00:19:40;;;;;;;24.73;16.80;;;;;;;;;;2090905;22;20314;-77
2024/03/28 00:21:00;;;;;;;30.45;18.67;;;;;;;;;;2067762;28;20033;-75
2024/03/28 00:22:19;;;;;;;26.55;17.95;;;;;;;;;;2068389;28;20049;-76
2024/03/28 00:23:37;;;;;;;26.73;17.55;;;;;;;;;;2066246;28;20034;-76
2024/03/28 00:24:56;;;;;;;26.77;17.98;;;;;;;;;;2061030;28;20042;-77
2024/03/28 00:26:16;;;;;;;25.42;17.63;;;;;;;;;;2063814;28;20033;-76
2024/03/28 00:27:34;;;;;;;26.98;18.15;;;;;;;;;;2062448;28;20107;-75
2024/03/28 00:28:53;;;;;;;25.02;18.10;;;;;;;;;;2062405;28;20093;-76
2024/03/28 00:30:12;;;;;;;28.10;18.10;;;;;;;;;;2066602;28;21939;-76
2024/03/28 00:31:31;;;;;;;23.88;17.15;;;;;;;;;;2067371;28;20025;-76
2024/03/28 00:32:50;;;;;;;26.80;17.48;;;;;;;;;;2068923;28;23028;-76
2024/03/28 00:34:10;;;;;;;22.52;17.83;;;;;;;;;;2058219;28;20038;-76
2024/03/28 00:35:29;;;;;;;29.00;17.77;;;;;;;;;;2062341;28;20065;-76
2024/03/28 00:36:48;;;;;;;28.98;18.30;;;;;;;;;;2064671;28;20034;-76
2024/03/28 00:38:07;;;;;;;27.13;18.00;;;;;;;;;;2061576;28;20027;-78
2024/03/28 00:39:26;;;;;;;24.92;16.98;;;;;;;;;;2064198;28;20026;-76
2024/03/28 00:40:49;;;;;;;26.83;17.67;;;;;;;;;;2069611;28;20078;-76
2024/03/28 00:42:08;;;;;;;;;;;;;;;;;;2069227;28;20379;-76
2024/03/28 00:43:27;;;;;;;28.65;17.88;;;;;;;;;;2070346;28;19914;-77
2024/03/28 00:44:45;;;;;;;25.85;18.05;;;;;;;;;;2059775;28;20034;-77
2024/03/28 00:46:04;;;;;;;29.75;18.60;;;;;;;;;;2065548;28;20026;-77
2024/03/28 00:47:23;;;;;;;26.90;17.70;;;;;;;;;;2069876;28;20030;-77
2024/03/28 00:48:42;;;;;;;27.88;19.05;;;;;;;;;;2069938;28;20107;-77
2024/03/28 00:50:01;;;;;;;27.60;17.70;;;;;;;;;;2069831;28;20112;-77
2024/03/28 00:51:20;;;;;;;28.52;18.17;;;;;;;;;;2060017;28;20145;-77
2024/03/28 00:52:40;;;;;;;25.63;17.23;;;;;;;;;;2059357;28;20034;-77
2024/03/28 00:53:58;;;;;;;26.65;17.50;;;;;;;;;;2066426;28;20497;-77
2024/03/28 00:55:17;;;;;;;30.88;18.33;;;;;;;;;;2060612;28;20097;-78
2024/03/28 00:56:36;;;;;;;24.75;17.83;;;;;;;;;;2066152;28;20038;-75
2024/03/28 00:57:55;;;;;;;30.08;17.85;;;;;;;;;;2069364;28;20037;-76
2024/03/28 00:59:14;;;;;;;28.35;18.15;;;;;;;;;;2071135;28;20038;-76
2024/03/28 01:00:33;;;;;;;25.02;17.90;;;;;;;;;;2065170;28;22923;-76
2024/03/28 01:01:53;;;;;;;26.42;18.20;;;;;;;;;;2058273;28;20451;-75
2024/03/28 01:03:11;;;;;;;31.60;18.38;;;;;;;;;;2064060;28;20049;-76
2024/03/28 01:04:30;;;;;;;27.65;17.30;;;;;;;;;;2069072;28;20049;-76
2024/03/28 01:05:56;;;;;;;25.77;16.55;;;;;;;;;;2059663;28;20705;-76
2024/03/28 01:07:15;;;;;;;28.73;17.85;;;;;;;;;;2065400;28;20038;-76
2024/03/28 01:08:35;;;;;;;23.98;17.05;;;;;;;;;;2067154;28;20030;-76
2024/03/28 01:09:54;;;;;;;27.92;17.58;;;;;;;;;;2067416;28;20033;-77
2024/03/28 01:11:13;;;;;;;28.52;17.83;;;;;;;;;;2068680;28;20053;-77
2024/03/28 01:12:32;;;;;;;29.60;17.38;;;;;;;;;;2067962;28;20982;-77
2024/03/28 01:13:52;;;;;;;22.45;16.85;;;;;;;;;;2068372;28;20100;-76
2024/03/28 01:15:10;;;;;;;26.10;17.02;;;;;;;;;;2065634;28;21864;-77
2024/03/28 01:16:29;;;;;;;24.45;15.88;;;;;;;;;;2059963;28;20050;-77
2024/03/28 01:17:48;;;;;;;25.50;17.17;;;;;;;;;;2065719;28;20068;-77
2024/03/28 01:19:07;;;;;;;29.42;17.55;;;;;;;;;;2066784;28;20121;-76
2024/03/28 01:20:26;;;;;;;33.90;17.42;;;;;;;;;;2066723;28;20042;-76
2024/03/28 01:21:45;;;;;;;28.33;17.40;;;;;;;;;;2067280;28;20515;-76
2024/03/28 01:23:04;;;;;;;29.00;17.50;;;;;;;;;;2061138;28;20026;-75
2024/03/28 01:24:23;;;;;;;24.48;16.35;;;;;;;;;;2066440;28;20055;-75
2024/03/28 01:25:43;;;;;;;24.40;17.02;;;;;;;;;;2058686;28;20030;-76
2024/03/28 01:27:02;;;;;;;26.15;17.63;;;;;;;;;;2064547;28;20022;-76
2024/03/28 01:28:21;;;;;;;25.63;17.42;;;;;;;;;;2059773;28;20175;-76
2024/03/28 01:29:40;;;;;;;27.50;17.23;;;;;;;;;;2064436;28;20033;-76
2024/03/28 01:31:03;;;;;;;28.45;17.60;;;;;;;;;;2065908;28;20038;-76
2024/03/28 01:32:22;;;;;;;24.95;17.40;;;;;;;;;;2060455;28;20491;-77
2024/03/28 01:33:41;;;;;;;20.63;15.73;;;;;;;;;;2061808;28;20074;-76
2024/03/28 01:35:00;;;;;;;26.33;17.17;;;;;;;;;;2068680;28;20039;-76
2024/03/28 01:36:19;;;;;;;27.13;17.30;;;;;;;;;;2066825;28;20034;-76
2024/03/28 01:37:38;;;;;;;26.63;16.63;;;;;;;;;;2069749;28;20041;-77
2024/03/28 01:38:57;;;;;;;25.80;17.05;;;;;;;;;;2067647;28;20737;-75
2024/03/28 01:40:15;;;;;;;29.65;17.33;;;;;;;;;;2058514;28;20437;-76
2024/03/28 01:41:34;;;;;;;25.80;16.65;;;;;;;;;;2063669;28;20022;-76
2024/03/28 01:43:02;;;;;;;23.27;16.85;;;;;;;;;;2060525;28;20113;-76
2024/03/28 01:44:22;;;;;;;25.38;16.10;;;;;;;;;;2065728;28;20117;-76
2024/03/28 01:45:41;;;;;;;25.67;16.30;;;;;;;;;;2068274;28;20034;-75
2024/03/28 01:47:02;;;;;;;23.80;16.80;;;;;;;;;;2067329;28;20041;-75
2024/03/28 01:48:21;;;;;;;24.08;16.27;;;;;;;;;;2058941;28;20030;-76
2024/03/28 01:49:41;;;;;;;25.63;16.42;;;;;;;;;;2064502;28;20431;-75
2024/03/28 01:51:00;;;;;;;25.25;16.50;;;;;;;;;;2068776;28;20034;-75
2024/03/28 01:52:20;;;;;;;22.38;16.30;;;;;;;;;;2067405;28;20038;-74
2024/03/28 01:53:39;;;;;;;24.90;15.52;;;;;;;;;;2058204;28;20062;-75
2024/03/28 01:54:59;;;;;;;28.77;16.50;;;;;;;;;;2064310;28;20538;-75
2024/03/28 01:56:18;;;;;;;25.58;16.25;;;;;;;;;;2068241;28;20029;-75
2024/03/28 01:57:37;;;;;;;25.25;15.93;;;;;;;;;;2060254;28;20522;-75
2024/03/28 01:58:56;;;;;;;25.20;16.38;;;;;;;;;;2065078;28;20037;-75
2024/03/28 02:00:15;;;;;;;22.88;15.80;;;;;;;;;;2057133;28;20033;-74
2024/03/28 02:01:37;;;;;;;25.98;16.05;;;;;;;;;;2066535;28;20037;-76
2024/03/28 02:02:56;;;;;;;23.67;16.52;;;;;;;;;;2069036;28;20057;-75
2024/03/28 02:04:15;;;;;;;22.38;15.80;;;;;;;;;;2059386;28;20026;-75
2024/03/28 02:05:34;;;;;;;26.92;15.77;;;;;;;;;;2063551;28;20498;-76
2024/03/28 02:06:53;;;;;;;28.48;16.67;;;;;;;;;;2066310;28;20025;-74
2024/03/28 02:08:13;;;;;;;23.92;15.57;;;;;;;;;;2060191;28;20039;-76
2024/03/28 02:09:32;;;;;;;23.73;15.60;;;;;;;;;;2063646;28;20062;-75
2024/03/28 02:10:51;;;;;;;22.00;15.70;;;;;;;;;;2067076;28;20034;-76
2024/03/28 02:12:11;;;;;;;27.17;14.50;;;;;;;;;;2067462;28;20029;-76
2024/03/28 02:13:30;;;;;;;24.20;15.35;;;;;;;;;;2067350;28;20038;-76
2024/03/28 02:14:49;;;;;;;22.50;14.90;;;;;;;;;;2067216;28;20045;-76
2024/03/28 02:16:08;;;;;;;19.75;14.98;;;;;;;;;;2067033;28;20034;-76
2024/03/28 02:17:27;;;;;;;27.05;14.77;;;;;;;;;;2069966;28;20018;-74
2024/03/28 02:18:46;;;;;;;24.13;14.68;;;;;;;;;;2064389;28;20029;-76
2024/03/28 02:20:06;;;;;;;24.88;14.98;;;;;;;;;;2067322;28;20041;-75
2024/03/28 02:21:25;;;;;;;23.13;15.13;;;;;;;;;;2067935;28;20037;-75
2024/03/28 02:22:44;;;;;;;24.77;15.70;;;;;;;;;;2069390;28;20081;-77
2024/03/28 02:24:03;;;;;;;23.02;15.00;;;;;;;;;;2067123;28;20031;-76
2024/03/28 02:25:23;;;;;;;21.83;15.13;;;;;;;;;;2064854;28;20025;-76
2024/03/28 02:26:42;;;;;;;20.48;15.25;;;;;;;;;;2067619;28;20022;-76
2024/03/28 02:28:01;;;;;;;21.45;14.73;;;;;;;;;;2068386;28;20484;-75
2024/03/28 02:29:20;;;;;;;22.25;15.20;;;;;;;;;;2066676;28;20054;-76
2024/03/28 02:30:43;;;;;;;18.55;13.40;;;;;;;;;;2058026;28;20074;-76
2024/03/28 02:32:02;;;;;;;20.63;14.40;;;;;;;;;;2065163;28;20066;-75
2024/03/28 02:33:21;;;;;;;20.27;14.18;;;;;;;;;;2068407;28;20077;-75
2024/03/28 02:34:40;;;;;;;18.98;14.43;;;;;;;;;;2067527;28;20033;-76
2024/03/28 02:35:58;;;;;;;21.35;13.82;;;;;;;;;;2067883;28;20037;-76
2024/03/28 02:37:17;;;;;;;21.10;14.60;;;;;;;;;;2068430;28;20666;-75
2024/03/28 02:38:36;;;;;;;24.02;14.27;;;;;;;;;;2068301;28;20034;-74
2024/03/28 02:39:55;;;;;;;21.67;14.82;;;;;;;;;;2058138;28;20023;-74
2024/03/28 02:41:18;;;;;;;22.50;13.93;;;;;;;;;;2053153;28;20042;-75
2024/03/28 02:42:37;;;;;;;19.00;14.35;;;;;;;;;;2066665;28;20026;-75
2024/03/28 02:43:56;;;;;;;21.67;14.85;;;;;;;;;;2067236;28;20058;-75
2024/03/28 02:45:15;;;;;;;20.77;14.25;;;;;;;;;;2066967;28;20018;-74
2024/03/28 02:46:34;;;;;;;20.75;13.63;;;;;;;;;;2065873;28;20503;-76
2024/03/28 02:47:53;;;;;;;22.88;14.52;;;;;;;;;;2058514;28;20026;-74
2024/03/28 02:49:12;;;;;;;19.90;14.68;;;;;;;;;;2064125;28;20025;-76
2024/03/28 02:50:31;;;;;;;17.50;13.35;;;;;;;;;;2058845;28;20026;-75
2024/03/28 02:51:50;;;;;;;21.20;13.88;;;;;;;;;;2063749;28;20034;-76
2024/03/28 02:53:09;;;;;;;22.08;13.35;;;;;;;;;;2068795;28;20451;-76
2024/03/28 02:54:28;;;;;;;19.38;13.88;;;;;;;;;;2066923;28;21020;-76
2024/03/28 02:55:50;;;;;;;19.48;13.20;;;;;;;;;;2067908;28;20042;-75
2024/03/28 02:57:10;;;;;;;21.40;14.27;;;;;;;;;;2056788;28;20563;-76
2024/03/28 02:58:29;;;;;;;23.08;13.88;;;;;;;;;;2063860;28;20422;-76
2024/03/28 02:59:48;;;;;;;18.77;12.90;;;;;;;;;;2066973;28;20041;-76
2024/03/28 03:01:07;;;;;;;23.98;13.15;;;;;;;;;;2068272;28;20045;-76
2024/03/28 03:02:27;;;;;;;19.52;13.15;;;;;;;;;;2069093;28;20057;-77
2024/03/28 03:03:46;;;;;;;20.88;13.60;;;;;;;;;;2068196;28;20025;-77
2024/03/28 03:05:05;;;;;;;18.10;12.75;;;;;;;;;;2068365;28;20030;-77
2024/03/28 03:06:25;;;;;;;17.25;12.70;;;;;;;;;;2058012;28;20031;-77
2024/03/28 03:07:44;;;;;;;20.45;13.07;;;;;;;;;;2067455;28;20037;-77
2024/03/28 03:09:03;;;;;;;22.38;13.20;;;;;;;;;;2068698;28;20022;-77
2024/03/28 03:10:22;;;;;;;22.65;13.15;;;;;;;;;;2068104;28;20030;-75
2024/03/28 03:11:41;;;;;;;17.40;11.82;;;;;;;;;;2068085;28;20037;-76
2024/03/28 03:13:00;;;;;;;19.88;12.90;;;;;;;;;;2070163;28;20034;-75
2024/03/28 03:14:20;;;;;;;18.60;12.98;;;;;;;;;;2067926;28;20038;-75
2024/03/28 03:15:39;;;;;;;22.67;12.65;;;;;;;;;;2067087;28;21372;-75
2024/03/28 03:16:58;;;;;;;14.70;11.57;;;;;;;;;;2066781;28;20387;-75
2024/03/28 03:18:19;;;;;;;20.55;12.75;;;;;;;;;;2067252;28;20038;-75
2024/03/28 03:19:40;;;;;;;17.63;12.13;;;;;;;;;;2058313;28;20034;-75
2024/03/28 03:21:04;;;;;;;17.83;12.38;;;;;;;;;;2064796;28;20121;-75
2024/03/28 03:22:23;;;;;;;19.10;12.20;;;;;;;;;;2067882;28;20571;-75
2024/03/28 03:23:50;;;;;;;19.45;12.07;;;;;;;;;;2058730;28;20700;-75
2024/03/28 03:25:13;;;;;;;14.13;11.68;;;;;;;;;;2056073;28;20034;-75
2024/03/28 03:26:34;;;;;;;25.30;12.05;;;;;;;;;;2064050;28;20030;-76
2024/03/28 03:34:35;;;;;;;14.32;12.27;;;;;;;;;;2067211;28;20026;-76
2024/03/28 03:35:54;;;;;;;17.90;11.77;;;;;;;;;;2067229;28;20038;-75
2024/03/28 03:37:14;;;;;;;16.20;11.73;;;;;;;;;;2065406;28;20030;-76
2024/03/28 03:38:33;;;;;;;18.98;12.15;;;;;;;;;;2067673;28;20026;-75
2024/03/28 03:39:53;;;;;;;17.67;11.82;;;;;;;;;;2066881;28;20030;-76
2024/03/28 03:41:12;;;;;;;21.50;11.35;;;;;;;;;;2066233;28;20026;-75
2024/03/28 03:42:31;;;;;;;16.75;11.23;;;;;;;;;;2068844;28;20022;-76
2024/03/28 03:43:50;;;;;;;18.80;11.57;;;;;;;;;;2057429;28;20039;-75
2024/03/28 03:45:09;;;;;;;17.95;11.43;;;;;;;;;;2052949;28;20483;-75
2024/03/28 03:46:28;;;;;;;15.55;11.38;;;;;;;;;;2062604;28;20073;-76
2024/03/28 03:47:47;;;;;;;14.85;11.18;;;;;;;;;;2066655;28;20045;-75
2024/03/28 03:49:06;;;;;;;15.88;11.80;;;;;;;;;;2067019;28;20025;-76
2024/03/28 03:50:24;;;;;;;14.63;11.55;;;;;;;;;;2059171;28;20045;-76
2024/03/28 03:51:43;;;;;;;16.88;11.10;;;;;;;;;;2064062;28;20030;-75
2024/03/28 03:53:02;;;;;;;17.73;11.48;;;;;;;;;;2068579;28;20026;-75
2024/03/28 03:54:21;;;;;;;18.60;11.10;;;;;;;;;;2067201;28;20426;-76
2024/03/28 03:55:40;;;;;;;17.70;11.25;;;;;;;;;;2067033;28;20033;-76
2024/03/28 03:56:59;;;;;;;18.08;11.73;;;;;;;;;;2060640;28;20057;-75
2024/03/28 03:58:18;;;;;;;15.38;10.85;;;;;;;;;;2057582;28;20042;-76
2024/03/28 03:59:38;;;;;;;18.27;11.15;;;;;;;;;;2066507;28;20062;-76
2024/03/28 04:00:58;;;;;;;16.17;11.15;;;;;;;;;;2068590;28;20404;-76
2024/03/28 04:02:17;;;;;;;15.05;11.25;;;;;;;;;;2057641;28;20019;-76
2024/03/28 04:03:36;;;;;;;16.73;11.45;;;;;;;;;;2067475;28;20025;-77
2024/03/28 04:04:55;;;;;;;18.05;11.80;;;;;;;;;;2067724;28;20018;-77
2024/03/28 04:06:15;;;;;;;17.95;11.20;;;;;;;;;;2060140;28;20034;-76
2024/03/28 04:07:34;;;;;;;21.00;11.50;;;;;;;;;;2066288;28;20436;-75
2024/03/28 04:08:53;;;;;;;17.42;10.95;;;;;;;;;;2060352;28;20276;-76
2024/03/28 04:10:12;;;;;;;18.40;11.00;;;;;;;;;;2065695;28;20030;-76
2024/03/28 04:11:31;;;;;;;15.15;10.90;;;;;;;;;;2067591;28;20034;-75
2024/03/28 04:12:50;;;;;;;14.75;10.88;;;;;;;;;;2071314;28;20438;-76
2024/03/28 04:14:09;;;;;;;16.27;11.30;;;;;;;;;;2067570;28;20483;-75
2024/03/28 04:15:28;;;;;;;21.20;11.88;;;;;;;;;;2073061;28;20069;-75
2024/03/28 04:16:47;;;;;;;18.92;11.38;;;;;;;;;;2059463;28;20022;-76
2024/03/28 04:18:06;;;;;;;16.33;10.77;;;;;;;;;;2066093;28;20038;-75
2024/03/28 04:19:25;;;;;;;18.40;11.32;;;;;;;;;;2066151;28;20676;-76
2024/03/28 04:20:44;;;;;;;17.08;10.68;;;;;;;;;;2068630;28;20482;-75
2024/03/28 04:22:03;;;;;;;15.50;10.57;;;;;;;;;;2067718;28;20033;-75
2024/03/28 04:23:22;;;;;;;14.48;11.13;;;;;;;;;;2061360;28;20026;-76
2024/03/28 04:24:41;;;;;;;20.60;10.60;;;;;;;;;;2064206;28;20503;-76
2024/03/28 04:26:00;;;;;;;13.07;10.65;;;;;;;;;;2068296;28;20038;-75
2024/03/28 04:27:19;;;;;;;14.38;10.20;;;;;;;;;;2059598;28;20034;-76
2024/03/28 04:28:38;;;;;;;14.02;11.18;;;;;;;;;;2063832;28;20030;-76
2024/03/28 04:29:57;;;;;;;17.70;10.73;;;;;;;;;;2057381;28;20070;-76
2024/03/28 04:31:16;;;;;;;17.52;11.23;;;;;;;;;;2056501;28;20065;-76
2024/03/28 04:32:35;;;;;;;15.40;11.52;;;;;;;;;;2065029;28;20018;-75
2024/03/28 04:33:54;;;;;;;18.95;12.25;;;;;;;;;;2067040;28;20030;-76
2024/03/28 04:35:13;;;;;;;15.55;11.40;;;;;;;;;;2059795;28;20031;-76
2024/03/28 04:36:32;;;;;;;18.30;11.15;;;;;;;;;;2064867;28;20026;-78
2024/03/28 04:37:51;;;;;;;20.45;11.20;;;;;;;;;;2058094;28;20499;-77
2024/03/28 04:39:13;;;;;;;13.48;10.20;;;;;;;;;;2063474;28;20771;-77
2024/03/28 04:40:32;;;;;;;15.63;10.38;;;;;;;;;;2068950;28;20026;-76
2024/03/28 04:41:51;;;;;;;15.77;10.65;;;;;;;;;;2067000;28;20026;-76
2024/03/28 04:43:11;;;;;;;15.00;10.30;;;;;;;;;;2060118;28;20031;-76
2024/03/28 04:44:31;;;;;;;20.02;10.98;;;;;;;;;;2062421;28;20021;-76
2024/03/28 04:45:50;;;;;;;13.68;9.85;;;;;;;;;;2066451;28;20310;-76
2024/03/28 04:47:09;;;;;;;20.35;10.68;;;;;;;;;;2067237;28;20029;-75
2024/03/28 04:48:27;;;;;;;15.50;9.77;;;;;;;;;;2068177;28;20081;-77
2024/03/28 04:49:46;;;;;;;13.65;10.18;;;;;;;;;;2067000;28;20065;-76
2024/03/28 04:51:05;;;;;;;14.30;10.20;;;;;;;;;;2068145;28;20026;-77
2024/03/28 04:52:24;;;;;;;19.90;10.50;;;;;;;;;;2067727;28;20057;-77
2024/03/28 04:53:43;;;;;;;18.48;10.80;;;;;;;;;;2059133;28;20022;-77
2024/03/28 04:55:02;;;;;;;18.02;9.85;;;;;;;;;;2063811;28;20105;-77
2024/03/28 04:56:21;;;;;;;16.25;10.23;;;;;;;;;;2066818;28;20018;-76
2024/03/28 04:57:40;;;;;;;13.77;9.80;;;;;;;;;;2060091;28;20026;-77
2024/03/28 04:58:59;;;;;;;28.25;11.52;;;;;;;;;;2064729;28;20034;-76
2024/03/28 05:00:19;;;;;;;16.27;10.65;;;;;;;;;;2065863;28;20495;-76
2024/03/28 05:01:38;;;;;;;18.52;10.25;;;;;;;;;;2059267;28;20053;-75
2024/03/28 05:02:57;;;;;;;13.57;9.80;;;;;;;;;;2065012;28;20079;-76
2024/03/28 05:04:17;;;;;;;15.02;10.07;;;;;;;;;;2065745;28;20027;-76
2024/03/28 05:05:37;;;;;;;16.85;10.35;;;;;;;;;;2066657;28;20033;-75
2024/03/28 05:06:56;;;;;;;16.63;10.40;;;;;;;;;;2067639;28;20023;-76
2024/03/28 05:08:16;;;;;;;16.70;10.38;;;;;;;;;;2068073;28;20428;-76
2024/03/28 05:09:34;;;;;;;15.35;10.18;;;;;;;;;;2060148;28;20492;-76
2024/03/28 05:10:53;;;;;;;13.38;9.75;;;;;;;;;;2063984;28;20034;-75
2024/03/28 05:12:13;;;;;;;17.77;10.05;;;;;;;;;;2068017;28;20987;-76
2024/03/28 05:13:32;;;;;;;17.35;10.20;;;;;;;;;;2067853;28;20030;-76
2024/03/28 05:14:52;;;;;;;13.93;9.25;;;;;;;;;;2068554;28;20034;-77
2024/03/28 05:16:14;;;;;;;11.95;9.63;;;;;;;;;;2065088;28;20755;-77
2024/03/28 05:17:33;;;;;;;92.80;47.58;;;;;;;;;;2068495;28;20021;-76
2024/03/28 05:18:52;;;;;;;17.63;10.73;;;;;;;;;;2065776;28;20688;-77
2024/03/28 05:20:14;;;;;;;26.73;12.95;;;;;;;;;;2066174;28;20049;-77
2024/03/28 05:21:33;;;;;;;18.67;10.73;;;;;;;;;;2068457;28;20590;-77
2024/03/28 05:22:52;;;;;;;17.98;10.88;;;;;;;;;;2068850;28;20034;-77
2024/03/28 05:24:12;;;;;;;21.25;11.32;;;;;;;;;;2067282;28;20491;-77
2024/03/28 05:25:31;;;;;;;18.33;10.00;;;;;;;;;;2066862;28;20033;-77
2024/03/28 05:26:50;;;;;;;16.40;10.43;;;;;;;;;;2066682;28;20191;-77
2024/03/28 05:28:09;;;;;;;15.80;9.80;;;;;;;;;;2061442;28;20022;-78
2024/03/28 05:29:29;;;;;;;17.40;10.10;;;;;;;;;;2065057;28;20031;-78
2024/03/28 05:30:48;;;;;;;13.40;9.13;;;;;;;;;;2065958;28;20148;-78
2024/03/28 05:32:07;;;;;;;14.40;10.40;;;;;;;;;;2067046;28;20046;-77
2024/03/28 05:33:26;;;;;;;14.40;9.70;;;;;;;;;;2067609;28;20057;-76
2024/03/28 05:34:45;;;;;;;14.15;9.82;;;;;;;;;;2058414;28;20034;-78
2024/03/28 05:36:04;;;;;;;10.85;9.40;;;;;;;;;;2071417;28;20041;-78
2024/03/28 05:37:25;;;;;;;14.65;9.63;;;;;;;;;;2064989;28;20034;-78
2024/03/28 05:38:45;;;;;;;22.73;9.57;;;;;;;;;;2073856;28;20103;-78
2024/03/28 05:40:05;;;;;;;14.82;9.63;;;;;;;;;;2078575;28;20026;-79
2024/03/28 05:41:24;;;;;;;22.90;9.32;;;;;;;;;;2068935;28;20042;-79
2024/03/28 05:42:43;;;;;;;16.80;9.32;;;;;;;;;;2074325;28;20026;-78
2024/03/28 05:44:02;;;;;;;15.00;9.13;;;;;;;;;;2069143;28;20030;-80
2024/03/28 05:45:21;;;;;;;15.07;9.73;;;;;;;;;;2076249;28;20033;-78
2024/03/28 05:46:40;;;;;;;11.73;8.77;;;;;;;;;;2066183;28;20022;-79
2024/03/28 05:47:58;;;;;;;15.90;9.35;;;;;;;;;;2074324;28;20026;-77
2024/03/28 05:49:18;;;;;;;18.67;9.57;;;;;;;;;;2068415;28;20392;-77
2024/03/28 05:50:36;;;;;;;15.55;9.05;;;;;;;;;;2066026;28;20499;-79
2024/03/28 05:51:56;;;;;;;13.50;9.40;;;;;;;;;;2073349;28;20042;-79
2024/03/28 05:53:15;;;;;;;14.75;9.38;;;;;;;;;;2066001;28;20042;-79
2024/03/28 05:54:34;;;;;;;13.45;8.38;;;;;;;;;;2071596;28;20574;-79
2024/03/28 05:55:56;;;;;;;10.75;9.40;;;;;;;;;;2078080;28;20018;-79
2024/03/28 05:57:15;;;;;;;18.80;8.75;;;;;;;;;;2067871;28;20026;-79
2024/03/28 05:58:34;;;;;;;15.30;9.77;;;;;;;;;;2064872;28;20022;-79
2024/03/28 05:59:53;;;;;;;18.25;9.77;;;;;;;;;;2063179;28;20033;-79
2024/03/28 06:01:15;;;;;;;10.05;8.35;;;;;;;;;;2068213;28;20404;-79
2024/03/28 06:02:35;;;;;;;10.43;8.13;;;;;;;;;;2072333;28;20030;-80
2024/03/28 06:03:54;;;;;;;15.30;9.25;;;;;;;;;;2067349;28;20109;-79
2024/03/28 06:05:13;;;;;;;12.02;8.63;;;;;;;;;;2073361;28;20038;-79
2024/03/28 06:06:32;;;;;;;10.13;7.53;;;;;;;;;;2072660;28;20029;-78
2024/03/28 06:07:51;;;;;;;11.68;7.85;;;;;;;;;;2074941;28;20026;-81
2024/03/28 06:09:11;;;;;;;12.63;8.27;;;;;;;;;;2068762;28;20437;-80
2024/03/28 06:10:30;;;;;;;12.02;7.75;;;;;;;;;;2071161;28;20109;-80
2024/03/28 06:11:49;;;;;;;12.20;7.70;;;;;;;;;;2067629;28;20027;-79
2024/03/28 06:13:08;;;;;;;8.70;7.05;;;;;;;;;;2070377;28;20372;-80
2024/03/28 06:14:28;;;;;;;8.77;7.53;;;;;;;;;;2068932;28;20037;-79
2024/03/28 06:15:47;;;;;;;12.32;6.85;;;;;;;;;;2069432;28;20022;-81
2024/03/28 06:17:06;;;;;;;8.75;7.10;;;;;;;;;;2075963;28;20057;-80
2024/03/28 06:18:26;;;;;;;12.82;7.68;;;;;;;;;;2077138;28;20061;-80
2024/03/28 06:19:45;;;;;;;14.00;7.30;;;;;;;;;;2067651;28;20042;-80
2024/03/28 06:21:04;;;;;;;14.52;7.07;;;;;;;;;;2073077;28;20046;-79
2024/03/28 06:22:23;;;;;;;12.38;6.80;;;;;;;;;;2068440;28;20034;-79
2024/03/28 06:23:42;;;;;;;9.63;6.63;;;;;;;;;;2064394;28;20022;-79
2024/03/28 06:25:01;;;;;;;10.55;6.93;;;;;;;;;;2072847;28;20065;-79
2024/03/28 06:26:20;;;;;;;8.13;6.63;;;;;;;;;;2067671;28;20030;-80
2024/03/28 06:27:39;;;;;;;10.23;6.53;;;;;;;;;;2068374;28;20033;-79
2024/03/28 06:28:58;;;;;;;7.57;6.60;;;;;;;;;;2064797;28;20022;-79
2024/03/28 06:30:25;;;;;;;13.20;6.40;;;;;;;;;;2062959;28;20042;-78
2024/03/28 06:31:47;;;;;;;14.90;6.57;;;;;;;;;;2064666;28;20061;-79
2024/03/28 06:33:06;;;;;;;10.27;6.50;;;;;;;;;;2063761;28;20058;-80
2024/03/28 06:34:25;;;;;;;14.07;6.80;;;;;;;;;;2072038;28;20446;-79
2024/03/28 06:35:45;;;;;;;13.80;6.43;;;;;;;;;;2066456;28;20035;-80
2024/03/28 06:37:03;;;;;;;17.52;6.75;;;;;;;;;;2073120;28;20455;-79
2024/03/28 06:38:23;;;;;;;10.77;6.28;;;;;;;;;;2074727;28;20456;-79
2024/03/28 06:39:41;;;;;;;6.90;6.15;;;;;;;;;;2064396;28;20039;-80
2024/03/28 06:41:01;;;;;;;9.00;7.22;;;;;;;;;;2064734;28;20030;-79
2024/03/28 06:42:20;;;;;;;14.13;6.03;;;;;;;;;;2059388;28;20038;-79
2024/03/28 06:43:39;;;;;;;12.27;7.03;;;;;;;;;;2064913;28;20034;-79
2024/03/28 06:44:58;;;;;;;11.57;6.30;;;;;;;;;;2069504;28;20105;-78
2024/03/28 06:46:17;;;;;;;13.52;6.72;;;;;;;;;;2056375;28;20026;-78
2024/03/28 06:47:37;;;;;;;9.02;6.15;;;;;;;;;;2057404;28;20026;-80
2024/03/28 06:48:56;;;;;;;7.40;5.90;;;;;;;;;;2064702;28;20482;-78
2024/03/28 06:50:15;;;;;;;11.75;5.82;;;;;;;;;;2068001;28;20643;-79
2024/03/28 06:51:34;;;;;;;9.35;5.90;;;;;;;;;;2066767;28;20029;-78
2024/03/28 06:52:53;;;;;;;10.57;5.90;;;;;;;;;;2068947;28;20502;-79
2024/03/28 06:54:12;;;;;;;10.55;5.60;;;;;;;;;;2060193;28;20113;-78
2024/03/28 06:55:31;;;;;;;8.65;6.05;;;;;;;;;;2061403;28;20038;-78
2024/03/28 06:56:50;;;;;;;13.98;5.97;;;;;;;;;;2056305;28;20027;-79
2024/03/28 06:58:09;;;;;;;8.57;5.38;;;;;;;;;;2055593;28;20030;-79
2024/03/28 06:59:28;;;;;;;17.98;6.13;;;;;;;;;;2053385;28;20026;-79
2024/03/28 07:00:47;;;;;;;14.32;5.35;;;;;;;;;;2056288;28;20049;-79
2024/03/28 07:02:06;;;;;;;9.68;6.03;;;;;;;;;;2055696;28;20629;-79
2024/03/28 07:03:25;;;;;;;11.30;5.43;;;;;;;;;;2066735;28;20559;-78
2024/03/28 07:04:45;;;;;;;10.30;5.97;;;;;;;;;;2058823;28;20085;-79
2024/03/28 07:06:04;;;;;;;15.50;6.03;;;;;;;;;;2065921;28;20464;-79
2024/03/28 07:07:22;;;;;;;12.93;7.30;;;;;;;;;;2067631;28;20041;-78
2024/03/28 07:08:42;;;;;;;10.30;5.45;;;;;;;;;;2058282;28;20031;-79
2024/03/28 07:10:00;;;;;;;9.57;5.57;;;;;;;;;;2063253;28;20027;-79
2024/03/28 07:11:20;;;;;;;11.07;5.60;;;;;;;;;;2067084;28;20062;-80
2024/03/28 07:12:39;;;;;;;8.38;5.25;;;;;;;;;;2059268;28;20038;-79
2024/03/28 07:13:58;;;;;;;13.80;5.43;;;;;;;;;;2064409;28;20141;-79
2024/03/28 07:15:17;;;;;;;10.75;5.53;;;;;;;;;;2068223;28;20044;-79
2024/03/28 07:16:36;;;;;;;13.38;6.28;;;;;;;;;;2076171;28;20434;-79
2024/03/28 07:17:55;;;;;;;14.55;6.18;;;;;;;;;;2058300;28;21296;-79
2024/03/28 07:19:15;;;;;;;16.58;6.18;;;;;;;;;;2056997;28;20125;-79
2024/03/28 07:20:34;;;;;;;12.35;5.30;;;;;;;;;;2064842;28;20053;-79
2024/03/28 07:21:52;;;;;;;9.23;5.78;;;;;;;;;;2068308;28;20026;-79
2024/03/28 07:23:11;;;;;;;18.02;6.32;;;;;;;;;;2060285;28;20026;-79
2024/03/28 07:24:30;;;;;;;12.57;5.15;;;;;;;;;;2055981;28;20518;-79
2024/03/28 07:25:49;;;;;;;10.07;5.25;;;;;;;;;;2063602;28;21007;-79
2024/03/28 07:27:08;;;;;;;15.30;5.32;;;;;;;;;;2067370;28;20038;-79
2024/03/28 07:28:27;;;;;;;9.38;5.05;;;;;;;;;;2064664;28;20030;-79
2024/03/28 07:29:47;;;;;;;15.20;5.85;;;;;;;;;;2057913;28;20141;-80
2024/03/28 07:31:06;;;;;;;12.88;5.47;;;;;;;;;;2063156;28;20044;-80
2024/03/28 07:32:25;;;;;;;12.98;5.40;;;;;;;;;;2068525;28;20035;-79
2024/03/28 07:33:45;;;;;;;13.05;5.20;;;;;;;;;;2059359;28;20503;-79
2024/03/28 07:35:04;;;;;;;14.45;5.18;;;;;;;;;;2064665;28;20030;-79
2024/03/28 07:36:23;;;;;;;13.43;5.00;;;;;;;;;;2058790;28;20500;-79
2024/03/28 07:37:42;;;;;;;16.50;5.53;;;;;;;;;;2066907;28;20033;-80
2024/03/28 07:39:02;;;;;;;18.23;5.50;;;;;;;;;;2060045;28;20034;-80
2024/03/28 07:40:21;;;;;;;11.02;5.18;;;;;;;;;;2066203;28;20708;-79
2024/03/28 07:41:41;;;;;;;7.95;5.00;;;;;;;;;;2066215;28;20026;-79
2024/03/28 07:42:59;;;;;;;8.77;5.28;;;;;;;;;;2067457;28;20125;-79
2024/03/28 07:44:18;;;;;;;17.60;5.53;;;;;;;;;;2069244;28;20025;-80
2024/03/28 07:45:37;;;;;;;13.63;5.53;;;;;;;;;;2066323;28;20030;-77
2024/03/28 07:46:56;;;;;;;14.10;5.32;;;;;;;;;;2068449;28;20038;-79
2024/03/28 07:48:15;;;;;;;10.32;5.75;;;;;;;;;;2068494;28;20057;-80
2024/03/28 07:49:35;;;;;;;17.30;5.20;;;;;;;;;;2060189;28;20046;-79
2024/03/28 07:51:00;;;;;;;13.93;5.13;;;;;;;;;;2057232;28;20531;-79
2024/03/28 07:52:19;;;;;;;16.77;5.45;;;;;;;;;;2065884;28;20038;-81